sensor_id;sensor_type;location;lat;lon;timestamp;temperature;humidity
19214;DHT22;9741;51.020;5.304;2022-10-22T00:00:52;13.10;69.70
19214;DHT22;9741;51.020;5.304;2022-10-22T00:03:20;13.10;69.70
19214;DHT22;9741;51.020;5.304;2022-10-22T00:05:48;13.10;69.80
19214;DHT22;9741;51.020;5.304;2022-10-22T00:08:15;13.10;69.90
19214;DHT22;9741;51.020;5.304;2022-10-22T00:10:44;13.20;70.00
19214;DHT22;9741;51.020;5.304;2022-10-22T00:13:11;13.20;70.10
19214;DHT22;9741;51.020;5.304;2022-10-22T00:15:38;13.30;70.20
19214;DHT22;9741;51.020;5.304;2022-10-22T00:18:07;13.40;70.30
19214;DHT22;9741;51.020;5.304;2022-10-22T00:20:34;13.40;70.40
19214;DHT22;9741;51.020;5.304;2022-10-22T00:23:01;13.50;70.40
19214;DHT22;9741;51.020;5.304;2022-10-22T00:25:28;13.60;70.40
19214;DHT22;9741;51.020;5.304;2022-10-22T00:27:57;13.60;70.40
19214;DHT22;9741;51.020;5.304;2022-10-22T00:30:25;13.70;70.50
19214;DHT22;9741;51.020;5.304;2022-10-22T00:32:52;13.70;70.50
19214;DHT22;9741;51.020;5.304;2022-10-22T00:35:19;13.80;70.60
19214;DHT22;9741;51.020;5.304;2022-10-22T00:37:47;13.80;70.60
19214;DHT22;9741;51.020;5.304;2022-10-22T00:40:14;13.90;70.70
19214;DHT22;9741;51.020;5.304;2022-10-22T00:42:42;13.90;70.70
19214;DHT22;9741;51.020;5.304;2022-10-22T00:45:23;13.90;70.70
19214;DHT22;9741;51.020;5.304;2022-10-22T00:47:54;13.90;70.70
19214;DHT22;9741;51.020;5.304;2022-10-22T00:50:26;14.00;70.80
19214;DHT22;9741;51.020;5.304;2022-10-22T00:52:55;14.00;70.70
19214;DHT22;9741;51.020;5.304;2022-10-22T00:55:23;14.00;70.80
19214;DHT22;9741;51.020;5.304;2022-10-22T00:57:53;14.00;70.70
19214;DHT22;9741;51.020;5.304;2022-10-22T01:00:22;14.00;70.70
19214;DHT22;9741;51.020;5.304;2022-10-22T01:02:51;14.00;70.70
19214;DHT22;9741;51.020;5.304;2022-10-22T01:05:20;14.00;70.70
19214;DHT22;9741;51.020;5.304;2022-10-22T01:07:48;14.00;70.70
19214;DHT22;9741;51.020;5.304;2022-10-22T01:10:26;14.00;70.80
19214;DHT22;9741;51.020;5.304;2022-10-22T01:13:05;14.00;70.90
19214;DHT22;9741;51.020;5.304;2022-10-22T01:15:42;14.00;71.10
19214;DHT22;9741;51.020;5.304;2022-10-22T01:18:16;14.00;71.10
19214;DHT22;9741;51.020;5.304;2022-10-22T01:20:59;14.00;71.10
19214;DHT22;9741;51.020;5.304;2022-10-22T01:23:58;14.00;71.10
19214;DHT22;9741;51.020;5.304;2022-10-22T01:26:55;14.00;71.10
19214;DHT22;9741;51.020;5.304;2022-10-22T01:29:29;14.00;71.10
19214;DHT22;9741;51.020;5.304;2022-10-22T01:32:00;14.00;71.20
19214;DHT22;9741;51.020;5.304;2022-10-22T01:34:28;14.00;71.20
19214;DHT22;9741;51.020;5.304;2022-10-22T01:36:57;13.90;71.20
19214;DHT22;9741;51.020;5.304;2022-10-22T01:39:26;14.00;71.30
19214;DHT22;9741;51.020;5.304;2022-10-22T01:41:57;13.90;71.20
19214;DHT22;9741;51.020;5.304;2022-10-22T01:44:28;13.90;71.20
19214;DHT22;9741;51.020;5.304;2022-10-22T01:47:05;13.90;71.30
19214;DHT22;9741;51.020;5.304;2022-10-22T01:49:48;13.90;71.30
19214;DHT22;9741;51.020;5.304;2022-10-22T01:52:25;13.90;71.30
19214;DHT22;9741;51.020;5.304;2022-10-22T01:55:02;13.90;71.20
19214;DHT22;9741;51.020;5.304;2022-10-22T01:57:42;13.90;71.20
19214;DHT22;9741;51.020;5.304;2022-10-22T02:00:18;13.80;71.10
19214;DHT22;9741;51.020;5.304;2022-10-22T02:02:48;13.70;71.00
19214;DHT22;9741;51.020;5.304;2022-10-22T02:05:23;13.70;71.00
19214;DHT22;9741;51.020;5.304;2022-10-22T02:07:56;13.60;70.90
19214;DHT22;9741;51.020;5.304;2022-10-22T02:10:26;13.50;70.80
19214;DHT22;9741;51.020;5.304;2022-10-22T02:12:57;13.40;70.70
19214;DHT22;9741;51.020;5.304;2022-10-22T02:15:28;13.40;70.90
19214;DHT22;9741;51.020;5.304;2022-10-22T02:17:58;13.40;71.00
19214;DHT22;9741;51.020;5.304;2022-10-22T02:20:27;13.30;70.90
19214;DHT22;9741;51.020;5.304;2022-10-22T02:22:55;13.20;70.80
19214;DHT22;9741;51.020;5.304;2022-10-22T02:25:24;13.20;70.80
19214;DHT22;9741;51.020;5.304;2022-10-22T02:27:59;13.10;70.70
19214;DHT22;9741;51.020;5.304;2022-10-22T02:30:30;13.10;70.70
19214;DHT22;9741;51.020;5.304;2022-10-22T02:33:02;13.00;70.70
19214;DHT22;9741;51.020;5.304;2022-10-22T02:35:30;12.90;70.70
19214;DHT22;9741;51.020;5.304;2022-10-22T02:37:59;12.90;70.60
19214;DHT22;9741;51.020;5.304;2022-10-22T02:40:28;12.80;70.60
19214;DHT22;9741;51.020;5.304;2022-10-22T02:42:56;12.80;70.60
19214;DHT22;9741;51.020;5.304;2022-10-22T02:45:24;12.70;70.50
19214;DHT22;9741;51.020;5.304;2022-10-22T02:47:53;12.60;70.40
19214;DHT22;9741;51.020;5.304;2022-10-22T02:50:20;12.60;70.50
19214;DHT22;9741;51.020;5.304;2022-10-22T02:52:47;12.60;70.50
19214;DHT22;9741;51.020;5.304;2022-10-22T02:55:14;12.50;70.50
19214;DHT22;9741;51.020;5.304;2022-10-22T02:57:42;12.50;70.60
19214;DHT22;9741;51.020;5.304;2022-10-22T03:00:10;12.50;70.60
19214;DHT22;9741;51.020;5.304;2022-10-22T03:02:38;12.40;70.50
19214;DHT22;9741;51.020;5.304;2022-10-22T03:05:07;12.40;70.50
19214;DHT22;9741;51.020;5.304;2022-10-22T03:07:35;12.40;70.60
19214;DHT22;9741;51.020;5.304;2022-10-22T03:10:04;12.40;70.60
19214;DHT22;9741;51.020;5.304;2022-10-22T03:12:32;12.40;70.60
19214;DHT22;9741;51.020;5.304;2022-10-22T03:14:59;12.40;70.70
19214;DHT22;9741;51.020;5.304;2022-10-22T03:17:27;12.40;70.70
19214;DHT22;9741;51.020;5.304;2022-10-22T03:19:54;12.40;70.80
19214;DHT22;9741;51.020;5.304;2022-10-22T03:22:24;12.40;70.80
19214;DHT22;9741;51.020;5.304;2022-10-22T03:24:54;12.50;70.90
19214;DHT22;9741;51.020;5.304;2022-10-22T03:27:25;12.50;70.80
19214;DHT22;9741;51.020;5.304;2022-10-22T03:29:53;12.50;70.80
19214;DHT22;9741;51.020;5.304;2022-10-22T03:32:22;12.60;70.90
19214;DHT22;9741;51.020;5.304;2022-10-22T03:34:49;12.70;70.90
19214;DHT22;9741;51.020;5.304;2022-10-22T03:37:17;12.70;70.80
19214;DHT22;9741;51.020;5.304;2022-10-22T03:39:46;12.70;70.70
19214;DHT22;9741;51.020;5.304;2022-10-22T03:42:15;12.70;70.60
19214;DHT22;9741;51.020;5.304;2022-10-22T03:44:42;12.70;70.50
19214;DHT22;9741;51.020;5.304;2022-10-22T03:47:10;12.60;70.50
19214;DHT22;9741;51.020;5.304;2022-10-22T03:49:38;12.60;70.50
19214;DHT22;9741;51.020;5.304;2022-10-22T03:52:07;12.60;70.60
19214;DHT22;9741;51.020;5.304;2022-10-22T03:54:35;12.60;70.60
19214;DHT22;9741;51.020;5.304;2022-10-22T03:57:04;12.50;70.50
19214;DHT22;9741;51.020;5.304;2022-10-22T03:59:34;12.50;70.50
19214;DHT22;9741;51.020;5.304;2022-10-22T04:02:01;12.40;70.40
19214;DHT22;9741;51.020;5.304;2022-10-22T04:04:28;12.40;70.40
19214;DHT22;9741;51.020;5.304;2022-10-22T04:06:56;12.40;70.40
19214;DHT22;9741;51.020;5.304;2022-10-22T04:09:23;12.30;70.50
19214;DHT22;9741;51.020;5.304;2022-10-22T04:11:50;12.30;70.50
19214;DHT22;9741;51.020;5.304;2022-10-22T04:14:18;12.30;70.50
19214;DHT22;9741;51.020;5.304;2022-10-22T04:16:46;12.30;70.50
19214;DHT22;9741;51.020;5.304;2022-10-22T04:19:14;12.30;70.50
19214;DHT22;9741;51.020;5.304;2022-10-22T04:21:41;12.30;70.70
19214;DHT22;9741;51.020;5.304;2022-10-22T04:24:09;12.20;70.60
19214;DHT22;9741;51.020;5.304;2022-10-22T04:26:37;12.30;70.70
19214;DHT22;9741;51.020;5.304;2022-10-22T04:29:06;12.30;70.80
19214;DHT22;9741;51.020;5.304;2022-10-22T04:31:34;12.30;71.40
19214;DHT22;9741;51.020;5.304;2022-10-22T04:34:01;12.30;70.80
19214;DHT22;9741;51.020;5.304;2022-10-22T04:36:29;12.30;70.80
19214;DHT22;9741;51.020;5.304;2022-10-22T04:38:57;12.30;70.70
19214;DHT22;9741;51.020;5.304;2022-10-22T04:41:26;12.30;70.70
19214;DHT22;9741;51.020;5.304;2022-10-22T04:43:55;12.30;70.70
19214;DHT22;9741;51.020;5.304;2022-10-22T04:46:23;12.30;70.70
19214;DHT22;9741;51.020;5.304;2022-10-22T04:48:53;12.20;70.60
19214;DHT22;9741;51.020;5.304;2022-10-22T04:51:22;12.20;70.70
19214;DHT22;9741;51.020;5.304;2022-10-22T04:53:50;12.30;71.30
19214;DHT22;9741;51.020;5.304;2022-10-22T04:56:19;12.30;70.90
19214;DHT22;9741;51.020;5.304;2022-10-22T04:58:49;12.30;70.90
19214;DHT22;9741;51.020;5.304;2022-10-22T05:01:18;12.30;71.00
19214;DHT22;9741;51.020;5.304;2022-10-22T05:03:47;12.40;71.20
19214;DHT22;9741;51.020;5.304;2022-10-22T05:06:17;12.40;71.20
19214;DHT22;9741;51.020;5.304;2022-10-22T05:08:46;12.50;71.30
19214;DHT22;9741;51.020;5.304;2022-10-22T05:11:16;12.60;71.50
19214;DHT22;9741;51.020;5.304;2022-10-22T05:13:45;12.70;71.50
19214;DHT22;9741;51.020;5.304;2022-10-22T05:16:13;12.80;71.60
19214;DHT22;9741;51.020;5.304;2022-10-22T05:18:43;12.90;72.10
19214;DHT22;9741;51.020;5.304;2022-10-22T05:21:12;13.00;71.50
19214;DHT22;9741;51.020;5.304;2022-10-22T05:23:41;13.10;71.60
19214;DHT22;9741;51.020;5.304;2022-10-22T05:26:10;13.20;71.50
19214;DHT22;9741;51.020;5.304;2022-10-22T05:28:38;13.20;71.50
19214;DHT22;9741;51.020;5.304;2022-10-22T05:31:09;13.30;71.60
19214;DHT22;9741;51.020;5.304;2022-10-22T05:33:36;13.40;71.60
19214;DHT22;9741;51.020;5.304;2022-10-22T05:36:05;13.40;71.60
19214;DHT22;9741;51.020;5.304;2022-10-22T05:38:34;13.50;71.70
19214;DHT22;9741;51.020;5.304;2022-10-22T05:41:05;13.50;71.70
19214;DHT22;9741;51.020;5.304;2022-10-22T05:43:33;13.50;71.70
19214;DHT22;9741;51.020;5.304;2022-10-22T05:46:01;13.50;71.80
19214;DHT22;9741;51.020;5.304;2022-10-22T05:48:30;13.50;71.80
19214;DHT22;9741;51.020;5.304;2022-10-22T05:51:00;13.50;71.80
19214;DHT22;9741;51.020;5.304;2022-10-22T05:53:30;13.50;71.80
19214;DHT22;9741;51.020;5.304;2022-10-22T05:56:03;13.50;71.90
19214;DHT22;9741;51.020;5.304;2022-10-22T05:58:33;13.60;72.00
19214;DHT22;9741;51.020;5.304;2022-10-22T06:01:02;13.60;72.00
19214;DHT22;9741;51.020;5.304;2022-10-22T06:03:29;13.60;72.00
19214;DHT22;9741;51.020;5.304;2022-10-22T06:05:59;13.60;72.00
19214;DHT22;9741;51.020;5.304;2022-10-22T06:08:27;13.60;72.10
19214;DHT22;9741;51.020;5.304;2022-10-22T06:10:54;13.60;72.10
19214;DHT22;9741;51.020;5.304;2022-10-22T06:13:23;13.60;72.20
19214;DHT22;9741;51.020;5.304;2022-10-22T06:15:51;13.60;72.20
19214;DHT22;9741;51.020;5.304;2022-10-22T06:18:18;13.60;72.20
19214;DHT22;9741;51.020;5.304;2022-10-22T06:20:46;13.60;72.20
19214;DHT22;9741;51.020;5.304;2022-10-22T06:23:14;13.60;72.30
19214;DHT22;9741;51.020;5.304;2022-10-22T06:25:42;13.60;72.30
19214;DHT22;9741;51.020;5.304;2022-10-22T06:28:09;13.60;72.30
19214;DHT22;9741;51.020;5.304;2022-10-22T06:30:38;13.70;72.50
19214;DHT22;9741;51.020;5.304;2022-10-22T06:33:05;13.70;72.40
19214;DHT22;9741;51.020;5.304;2022-10-22T06:35:33;13.70;72.40
19214;DHT22;9741;51.020;5.304;2022-10-22T06:38:00;13.70;72.40
19214;DHT22;9741;51.020;5.304;2022-10-22T06:40:27;13.70;72.40
19214;DHT22;9741;51.020;5.304;2022-10-22T06:42:54;13.80;72.60
19214;DHT22;9741;51.020;5.304;2022-10-22T06:45:21;13.80;72.60
19214;DHT22;9741;51.020;5.304;2022-10-22T06:47:49;13.90;72.60
19214;DHT22;9741;51.020;5.304;2022-10-22T06:50:17;13.90;72.70
19214;DHT22;9741;51.020;5.304;2022-10-22T06:52:45;14.00;73.00
19214;DHT22;9741;51.020;5.304;2022-10-22T06:55:12;14.10;73.10
19214;DHT22;9741;51.020;5.304;2022-10-22T06:57:40;14.30;73.20
19214;DHT22;9741;51.020;5.304;2022-10-22T07:00:09;14.40;73.20
19214;DHT22;9741;51.020;5.304;2022-10-22T07:02:38;14.50;73.10
19214;DHT22;9741;51.020;5.304;2022-10-22T07:05:08;14.60;73.10
19214;DHT22;9741;51.020;5.304;2022-10-22T07:07:36;14.70;73.00
19214;DHT22;9741;51.020;5.304;2022-10-22T07:10:04;14.80;73.00
19214;DHT22;9741;51.020;5.304;2022-10-22T07:12:33;14.90;73.00
19214;DHT22;9741;51.020;5.304;2022-10-22T07:15:01;15.00;73.00
19214;DHT22;9741;51.020;5.304;2022-10-22T07:17:29;15.00;72.90
19214;DHT22;9741;51.020;5.304;2022-10-22T07:19:55;15.10;72.90
19214;DHT22;9741;51.020;5.304;2022-10-22T07:22:24;15.20;73.00
19214;DHT22;9741;51.020;5.304;2022-10-22T07:24:51;15.30;73.10
19214;DHT22;9741;51.020;5.304;2022-10-22T07:27:19;15.40;73.10
19214;DHT22;9741;51.020;5.304;2022-10-22T07:29:46;15.50;73.10
19214;DHT22;9741;51.020;5.304;2022-10-22T07:32:15;15.50;73.00
19214;DHT22;9741;51.020;5.304;2022-10-22T07:34:42;15.60;73.00
19214;DHT22;9741;51.020;5.304;2022-10-22T07:37:09;15.70;73.00
19214;DHT22;9741;51.020;5.304;2022-10-22T07:39:38;15.80;72.90
19214;DHT22;9741;51.020;5.304;2022-10-22T07:42:05;15.90;72.80
19214;DHT22;9741;51.020;5.304;2022-10-22T07:44:32;15.90;72.60
19214;DHT22;9741;51.020;5.304;2022-10-22T07:46:59;15.90;72.50
19214;DHT22;9741;51.020;5.304;2022-10-22T07:49:26;15.80;72.90
19214;DHT22;9741;51.020;5.304;2022-10-22T07:51:54;15.80;72.20
19214;DHT22;9741;51.020;5.304;2022-10-22T07:54:22;15.70;72.20
19214;DHT22;9741;51.020;5.304;2022-10-22T07:56:51;15.80;72.40
19214;DHT22;9741;51.020;5.304;2022-10-22T07:59:19;15.90;72.60
19214;DHT22;9741;51.020;5.304;2022-10-22T08:01:50;16.00;72.70
19214;DHT22;9741;51.020;5.304;2022-10-22T08:04:18;16.20;72.70
19214;DHT22;9741;51.020;5.304;2022-10-22T08:06:47;16.40;72.60
19214;DHT22;9741;51.020;5.304;2022-10-22T08:09:14;16.50;72.40
19214;DHT22;9741;51.020;5.304;2022-10-22T08:11:41;16.70;72.20
19214;DHT22;9741;51.020;5.304;2022-10-22T08:14:10;16.80;72.10
19214;DHT22;9741;51.020;5.304;2022-10-22T08:16:37;16.90;71.70
19214;DHT22;9741;51.020;5.304;2022-10-22T08:19:06;17.10;71.50
19214;DHT22;9741;51.020;5.304;2022-10-22T08:21:33;17.20;71.30
19214;DHT22;9741;51.020;5.304;2022-10-22T08:24:00;17.30;71.10
19214;DHT22;9741;51.020;5.304;2022-10-22T08:26:28;17.40;70.90
19214;DHT22;9741;51.020;5.304;2022-10-22T08:28:55;17.50;70.60
19214;DHT22;9741;51.020;5.304;2022-10-22T08:31:25;17.60;70.30
19214;DHT22;9741;51.020;5.304;2022-10-22T08:33:52;17.70;70.20
19214;DHT22;9741;51.020;5.304;2022-10-22T08:36:20;17.80;70.00
19214;DHT22;9741;51.020;5.304;2022-10-22T08:38:47;18.00;69.80
19214;DHT22;9741;51.020;5.304;2022-10-22T08:41:16;18.00;69.40
19214;DHT22;9741;51.020;5.304;2022-10-22T08:47:04;18.30;68.90
19214;DHT22;9741;51.020;5.304;2022-10-22T08:49:45;18.30;68.50
19214;DHT22;9741;51.020;5.304;2022-10-22T08:52:16;18.40;68.40
19214;DHT22;9741;51.020;5.304;2022-10-22T08:54:50;18.50;68.00
19214;DHT22;9741;51.020;5.304;2022-10-22T08:57:33;18.70;67.90
19214;DHT22;9741;51.020;5.304;2022-10-22T09:00:10;18.80;67.60
19214;DHT22;9741;51.020;5.304;2022-10-22T09:02:47;18.90;67.30
19214;DHT22;9741;51.020;5.304;2022-10-22T09:05:27;19.00;67.00
19214;DHT22;9741;51.020;5.304;2022-10-22T09:07:57;19.10;66.70
19214;DHT22;9741;51.020;5.304;2022-10-22T09:10:30;19.10;66.30
19214;DHT22;9741;51.020;5.304;2022-10-22T09:12:58;19.20;66.10
19214;DHT22;9741;51.020;5.304;2022-10-22T09:15:27;19.30;66.00
19214;DHT22;9741;51.020;5.304;2022-10-22T09:18:18;19.40;65.80
19214;DHT22;9741;51.020;5.304;2022-10-22T09:20:52;19.40;65.40
19214;DHT22;9741;51.020;5.304;2022-10-22T09:23:33;19.40;65.20
19214;DHT22;9741;51.020;5.304;2022-10-22T09:26:12;19.50;65.10
19214;DHT22;9741;51.020;5.304;2022-10-22T09:28:41;19.50;64.90
19214;DHT22;9741;51.020;5.304;2022-10-22T09:31:10;19.50;64.80
19214;DHT22;9741;51.020;5.304;2022-10-22T09:33:39;19.60;64.40
19214;DHT22;9741;51.020;5.304;2022-10-22T09:36:12;19.60;64.20
19214;DHT22;9741;51.020;5.304;2022-10-22T09:38:43;19.60;63.90
19214;DHT22;9741;51.020;5.304;2022-10-22T09:41:12;19.60;63.80
19214;DHT22;9741;51.020;5.304;2022-10-22T09:43:39;19.70;63.70
19214;DHT22;9741;51.020;5.304;2022-10-22T09:46:12;19.70;63.50
19214;DHT22;9741;51.020;5.304;2022-10-22T09:48:47;19.80;63.50
19214;DHT22;9741;51.020;5.304;2022-10-22T09:51:17;19.80;63.30
19214;DHT22;9741;51.020;5.304;2022-10-22T09:53:47;19.80;63.20
19214;DHT22;9741;51.020;5.304;2022-10-22T09:56:25;19.80;63.10
19214;DHT22;9741;51.020;5.304;2022-10-22T09:58:55;19.90;63.20
19214;DHT22;9741;51.020;5.304;2022-10-22T10:01:25;19.90;62.90
19214;DHT22;9741;51.020;5.304;2022-10-22T10:03:54;19.80;62.60
19214;DHT22;9741;51.020;5.304;2022-10-22T10:06:31;19.80;62.60
19214;DHT22;9741;51.020;5.304;2022-10-22T10:08:58;19.80;62.50
19214;DHT22;9741;51.020;5.304;2022-10-22T10:11:31;19.80;62.40
19214;DHT22;9741;51.020;5.304;2022-10-22T10:14:07;19.80;62.30
19214;DHT22;9741;51.020;5.304;2022-10-22T10:16:44;19.80;62.20
19214;DHT22;9741;51.020;5.304;2022-10-22T10:19:28;19.90;62.10
19214;DHT22;9741;51.020;5.304;2022-10-22T10:22:09;19.90;62.00
19214;DHT22;9741;51.020;5.304;2022-10-22T10:24:53;19.80;61.80
19214;DHT22;9741;51.020;5.304;2022-10-22T10:27:30;19.80;61.80
19214;DHT22;9741;51.020;5.304;2022-10-22T10:30:04;19.70;62.00
19214;DHT22;9741;51.020;5.304;2022-10-22T10:32:55;19.70;62.00
19214;DHT22;9741;51.020;5.304;2022-10-22T10:35:33;19.70;62.00
19214;DHT22;9741;51.020;5.304;2022-10-22T10:38:14;19.80;62.00
19214;DHT22;9741;51.020;5.304;2022-10-22T10:40:47;19.90;62.10
19214;DHT22;9741;51.020;5.304;2022-10-22T10:43:21;20.10;62.10
19214;DHT22;9741;51.020;5.304;2022-10-22T10:45:57;20.20;61.80
19214;DHT22;9741;51.020;5.304;2022-10-22T10:48:39;20.30;61.40
19214;DHT22;9741;51.020;5.304;2022-10-22T10:51:23;20.40;61.30
19214;DHT22;9741;51.020;5.304;2022-10-22T10:54:03;20.40;61.10
19214;DHT22;9741;51.020;5.304;2022-10-22T10:56:39;20.40;61.00
19214;DHT22;9741;51.020;5.304;2022-10-22T10:59:15;20.40;60.80
19214;DHT22;9741;51.020;5.304;2022-10-22T11:02:14;20.40;60.80
19214;DHT22;9741;51.020;5.304;2022-10-22T11:05:02;20.50;61.10
19214;DHT22;9741;51.020;5.304;2022-10-22T11:07:38;20.60;60.70
19214;DHT22;9741;51.020;5.304;2022-10-22T11:10:26;20.60;60.30
19214;DHT22;9741;51.020;5.304;2022-10-22T11:13:00;20.50;60.00
19214;DHT22;9741;51.020;5.304;2022-10-22T11:15:30;20.40;60.10
19214;DHT22;9741;51.020;5.304;2022-10-22T11:18:05;20.30;60.30
19214;DHT22;9741;51.020;5.304;2022-10-22T11:20:46;20.30;60.30
19214;DHT22;9741;51.020;5.304;2022-10-22T11:23:23;20.40;60.20
19214;DHT22;9741;51.020;5.304;2022-10-22T11:25:51;20.50;60.00
19214;DHT22;9741;51.020;5.304;2022-10-22T11:28:22;20.50;59.90
19214;DHT22;9741;51.020;5.304;2022-10-22T11:30:56;20.60;59.90
19214;DHT22;9741;51.020;5.304;2022-10-22T11:33:28;20.70;59.70
19214;DHT22;9741;51.020;5.304;2022-10-22T11:35:59;20.70;59.40
19214;DHT22;9741;51.020;5.304;2022-10-22T11:38:29;20.70;59.40
19214;DHT22;9741;51.020;5.304;2022-10-22T11:40:59;20.60;59.20
19214;DHT22;9741;51.020;5.304;2022-10-22T11:43:29;20.70;59.40
19214;DHT22;9741;51.020;5.304;2022-10-22T11:46:01;20.70;59.40
19214;DHT22;9741;51.020;5.304;2022-10-22T11:48:36;20.80;59.50
19214;DHT22;9741;51.020;5.304;2022-10-22T11:51:14;20.90;59.50
19214;DHT22;9741;51.020;5.304;2022-10-22T11:53:57;21.00;59.40
19214;DHT22;9741;51.020;5.304;2022-10-22T11:56:36;21.20;59.20
19214;DHT22;9741;51.020;5.304;2022-10-22T11:59:33;21.20;59.10
19214;DHT22;9741;51.020;5.304;2022-10-22T12:02:37;21.30;58.90
19214;DHT22;9741;51.020;5.304;2022-10-22T12:05:33;21.30;58.50
19214;DHT22;9741;51.020;5.304;2022-10-22T12:08:12;21.20;58.30
19214;DHT22;9741;51.020;5.304;2022-10-22T12:10:59;21.10;58.40
19214;DHT22;9741;51.020;5.304;2022-10-22T12:13:32;21.10;58.50
19214;DHT22;9741;51.020;5.304;2022-10-22T12:16:02;21.00;58.50
19214;DHT22;9741;51.020;5.304;2022-10-22T12:18:37;21.10;58.60
19214;DHT22;9741;51.020;5.304;2022-10-22T12:21:10;21.20;58.50
19214;DHT22;9741;51.020;5.304;2022-10-22T12:23:38;21.30;58.40
19214;DHT22;9741;51.020;5.304;2022-10-22T12:26:22;21.40;58.30
19214;DHT22;9741;51.020;5.304;2022-10-22T12:28:49;21.60;58.20
19214;DHT22;9741;51.020;5.304;2022-10-22T12:31:17;21.70;58.00
19214;DHT22;9741;51.020;5.304;2022-10-22T12:33:44;21.80;57.80
19214;DHT22;9741;51.020;5.304;2022-10-22T12:36:15;21.80;57.40
19214;DHT22;9741;51.020;5.304;2022-10-22T12:38:45;21.90;57.30
19214;DHT22;9741;51.020;5.304;2022-10-22T12:41:14;21.90;57.10
19214;DHT22;9741;51.020;5.304;2022-10-22T12:43:41;22.10;56.90
19214;DHT22;9741;51.020;5.304;2022-10-22T12:46:11;22.10;56.70
19214;DHT22;9741;51.020;5.304;2022-10-22T12:48:41;22.20;56.50
19214;DHT22;9741;51.020;5.304;2022-10-22T12:51:14;22.30;56.30
19214;DHT22;9741;51.020;5.304;2022-10-22T12:53:45;22.40;56.10
19214;DHT22;9741;51.020;5.304;2022-10-22T12:56:16;22.40;55.90
19214;DHT22;9741;51.020;5.304;2022-10-22T12:58:51;22.30;55.60
19214;DHT22;9741;51.020;5.304;2022-10-22T13:01:18;22.20;55.60
19214;DHT22;9741;51.020;5.304;2022-10-22T13:03:48;22.10;55.60
19214;DHT22;9741;51.020;5.304;2022-10-22T13:06:24;21.90;55.60
19214;DHT22;9741;51.020;5.304;2022-10-22T13:09:01;21.80;55.70
19214;DHT22;9741;51.020;5.304;2022-10-22T13:11:36;21.70;56.00
19214;DHT22;9741;51.020;5.304;2022-10-22T13:14:12;21.70;56.00
19214;DHT22;9741;51.020;5.304;2022-10-22T13:16:41;21.70;56.00
19214;DHT22;9741;51.020;5.304;2022-10-22T13:19:37;21.70;56.00
19214;DHT22;9741;51.020;5.304;2022-10-22T13:24:49;21.60;55.90
19214;DHT22;9741;51.020;5.304;2022-10-22T13:27:18;21.40;55.80
19214;DHT22;9741;51.020;5.304;2022-10-22T13:29:45;21.30;56.00
19214;DHT22;9741;51.020;5.304;2022-10-22T13:32:26;21.20;56.00
19214;DHT22;9741;51.020;5.304;2022-10-22T13:34:56;21.20;56.10
19214;DHT22;9741;51.020;5.304;2022-10-22T13:37:25;21.20;56.20
19214;DHT22;9741;51.020;5.304;2022-10-22T13:39:53;21.20;56.20
19214;DHT22;9741;51.020;5.304;2022-10-22T13:42:22;21.20;56.00
19214;DHT22;9741;51.020;5.304;2022-10-22T13:44:49;21.10;55.80
19214;DHT22;9741;51.020;5.304;2022-10-22T13:47:24;21.10;55.90
19214;DHT22;9741;51.020;5.304;2022-10-22T13:49:54;21.00;55.80
19214;DHT22;9741;51.020;5.304;2022-10-22T13:52:35;20.90;55.70
19214;DHT22;9741;51.020;5.304;2022-10-22T13:55:13;20.90;55.70
19214;DHT22;9741;51.020;5.304;2022-10-22T13:57:41;20.90;55.70
19214;DHT22;9741;51.020;5.304;2022-10-22T14:00:12;20.80;55.80
19214;DHT22;9741;51.020;5.304;2022-10-22T14:02:40;20.80;55.80
19214;DHT22;9741;51.020;5.304;2022-10-22T14:05:08;20.70;55.80
19214;DHT22;9741;51.020;5.304;2022-10-22T14:07:37;20.80;55.90
19214;DHT22;9741;51.020;5.304;2022-10-22T14:10:17;20.70;55.60
19214;DHT22;9741;51.020;5.304;2022-10-22T14:12:47;20.70;55.60
19214;DHT22;9741;51.020;5.304;2022-10-22T14:15:16;20.70;55.60
19214;DHT22;9741;51.020;5.304;2022-10-22T14:17:45;20.70;55.60
19214;DHT22;9741;51.020;5.304;2022-10-22T14:20:17;20.80;55.60
19214;DHT22;9741;51.020;5.304;2022-10-22T14:22:46;20.90;55.50
19214;DHT22;9741;51.020;5.304;2022-10-22T14:25:15;20.90;55.50
19214;DHT22;9741;51.020;5.304;2022-10-22T14:27:43;20.80;55.50
19214;DHT22;9741;51.020;5.304;2022-10-22T14:30:15;20.80;55.50
19214;DHT22;9741;51.020;5.304;2022-10-22T14:32:43;20.80;55.50
19214;DHT22;9741;51.020;5.304;2022-10-22T14:35:12;20.80;55.60
19214;DHT22;9741;51.020;5.304;2022-10-22T14:37:40;20.70;55.60
19214;DHT22;9741;51.020;5.304;2022-10-22T14:40:11;20.70;55.50
19214;DHT22;9741;51.020;5.304;2022-10-22T14:42:40;20.70;55.40
19214;DHT22;9741;51.020;5.304;2022-10-22T14:45:15;20.60;55.50
19214;DHT22;9741;51.020;5.304;2022-10-22T14:47:42;20.60;55.60
19214;DHT22;9741;51.020;5.304;2022-10-22T14:50:12;20.50;55.60
19214;DHT22;9741;51.020;5.304;2022-10-22T14:52:41;20.50;55.70
19214;DHT22;9741;51.020;5.304;2022-10-22T14:55:09;20.40;55.70
19214;DHT22;9741;51.020;5.304;2022-10-22T14:57:36;20.40;55.90
19214;DHT22;9741;51.020;5.304;2022-10-22T15:00:07;20.40;56.00
19214;DHT22;9741;51.020;5.304;2022-10-22T15:02:36;20.40;55.90
19214;DHT22;9741;51.020;5.304;2022-10-22T15:05:05;20.30;55.90
19214;DHT22;9741;51.020;5.304;2022-10-22T15:07:33;20.30;56.10
19214;DHT22;9741;51.020;5.304;2022-10-22T15:10:00;20.20;56.00
19214;DHT22;9741;51.020;5.304;2022-10-22T15:12:28;20.10;56.00
19214;DHT22;9741;51.020;5.304;2022-10-22T15:14:55;20.00;56.10
19214;DHT22;9741;51.020;5.304;2022-10-22T15:17:23;20.00;56.50
19214;DHT22;9741;51.020;5.304;2022-10-22T15:19:52;19.90;56.30
19214;DHT22;9741;51.020;5.304;2022-10-22T15:22:21;19.80;56.40
19214;DHT22;9741;51.020;5.304;2022-10-22T15:24:48;19.80;56.50
19214;DHT22;9741;51.020;5.304;2022-10-22T15:27:17;19.70;56.60
19214;DHT22;9741;51.020;5.304;2022-10-22T15:29:44;19.60;56.60
19214;DHT22;9741;51.020;5.304;2022-10-22T15:32:12;19.60;56.90
19214;DHT22;9741;51.020;5.304;2022-10-22T15:34:39;19.60;57.00
19214;DHT22;9741;51.020;5.304;2022-10-22T15:37:10;19.50;57.20
19214;DHT22;9741;51.020;5.304;2022-10-22T15:39:39;19.50;57.30
19214;DHT22;9741;51.020;5.304;2022-10-22T15:42:07;19.40;57.30
19214;DHT22;9741;51.020;5.304;2022-10-22T15:44:35;19.40;57.50
19214;DHT22;9741;51.020;5.304;2022-10-22T15:47:05;19.40;57.60
19214;DHT22;9741;51.020;5.304;2022-10-22T15:49:34;19.30;57.60
19214;DHT22;9741;51.020;5.304;2022-10-22T15:52:02;19.20;57.80
19214;DHT22;9741;51.020;5.304;2022-10-22T15:54:32;19.10;57.80
19214;DHT22;9741;51.020;5.304;2022-10-22T15:57:00;19.10;58.10
19214;DHT22;9741;51.020;5.304;2022-10-22T15:59:28;19.00;58.20
19214;DHT22;9741;51.020;5.304;2022-10-22T16:01:56;19.00;58.40
19214;DHT22;9741;51.020;5.304;2022-10-22T16:04:24;18.90;58.40
19214;DHT22;9741;51.020;5.304;2022-10-22T16:06:53;18.80;58.50
19214;DHT22;9741;51.020;5.304;2022-10-22T16:09:22;18.70;58.60
19214;DHT22;9741;51.020;5.304;2022-10-22T16:11:52;18.70;58.70
19214;DHT22;9741;51.020;5.304;2022-10-22T16:14:21;18.60;58.80